createdAt,value
2019-03-31T00:02:26.405Z,10.17
2019-03-31T00:04:56.750Z,11.10
2019-03-31T00:07:27.058Z,9.90
2019-03-31T00:09:57.304Z,10.47
2019-03-31T00:12:27.722Z,10.13
2019-03-31T00:15:00.809Z,10.50
2019-03-31T00:17:31.862Z,10.17
2019-03-31T00:20:02.144Z,10.10
2019-03-31T00:22:32.400Z,10.40
2019-03-31T00:25:06.300Z,12.03
2019-03-31T00:27:37.101Z,10.93
2019-03-31T00:30:09.443Z,10.53
2019-03-31T00:32:40.953Z,11.00
2019-03-31T00:35:11.252Z,11.57
2019-03-31T00:37:42.449Z,10.20
2019-03-31T00:40:12.946Z,9.13
2019-03-31T00:42:43.419Z,9.63
2019-03-31T00:45:16.610Z,10.73
2019-03-31T00:47:48.338Z,10.10
2019-03-31T00:50:19.014Z,11.17
2019-03-31T00:52:49.156Z,10.80
2019-03-31T00:55:19.789Z,9.90
2019-03-31T00:57:49.988Z,9.23
2019-03-31T01:00:40.759Z,13.70
2019-03-31T01:03:14.507Z,10.83
2019-03-31T01:05:45.386Z,10.47
2019-03-31T01:08:17.025Z,10.57
2019-03-31T01:10:47.707Z,10.10
2019-03-31T01:13:18.207Z,11.13
2019-03-31T01:15:49.161Z,10.43
2019-03-31T01:18:21.326Z,10.43
2019-03-31T01:20:52.257Z,10.33
2019-03-31T01:23:22.939Z,10.00
2019-03-31T01:25:56.391Z,9.93
2019-03-31T01:28:29.810Z,9.70
2019-03-31T01:31:00.389Z,9.57
2019-03-31T01:33:32.966Z,10.37
2019-03-31T01:36:04.746Z,9.67
2019-03-31T01:38:36.313Z,9.60
2019-03-31T01:41:08.034Z,10.13
2019-03-31T01:43:38.457Z,10.57
2019-03-31T01:46:10.419Z,9.57
2019-03-31T01:48:42.072Z,10.27
2019-03-31T01:51:12.580Z,10.57
2019-03-31T01:53:42.696Z,9.67
2019-03-31T01:56:13.147Z,9.90
2019-03-31T01:58:43.719Z,9.50
2019-03-31T02:01:17.523Z,9.70
2019-03-31T02:03:48.199Z,10.23
2019-03-31T02:06:19.785Z,10.53
2019-03-31T02:08:50.059Z,9.23
2019-03-31T02:11:24.504Z,10.60
2019-03-31T02:13:59.005Z,10.10
2019-03-31T02:16:30.721Z,10.00
2019-03-31T02:19:00.766Z,9.40
2019-03-31T02:21:30.891Z,9.90
2019-03-31T02:24:02.498Z,9.77
2019-03-31T02:26:32.546Z,10.77
2019-03-31T02:29:02.643Z,9.97
2019-03-31T02:31:32.968Z,10.07
2019-03-31T02:34:07.215Z,10.23
2019-03-31T02:36:37.232Z,10.10
2019-03-31T02:39:07.986Z,10.00
2019-03-31T02:41:39.204Z,9.50
2019-03-31T02:44:12.031Z,9.80
2019-03-31T02:46:42.367Z,10.10
2019-03-31T02:49:12.438Z,11.40
2019-03-31T02:51:42.561Z,10.27
2019-03-31T02:54:13.932Z,10.70
2019-03-31T02:56:44.323Z,10.50
2019-03-31T02:59:16.048Z,9.77
2019-03-31T03:01:47.646Z,9.70
2019-03-31T03:04:19.134Z,10.70
2019-03-31T03:06:51.061Z,11.53
2019-03-31T03:09:23.610Z,10.80
2019-03-31T03:11:56.328Z,9.50
2019-03-31T03:14:28.546Z,9.40
2019-03-31T03:16:58.837Z,9.50
2019-03-31T03:19:28.954Z,9.23
2019-03-31T03:21:59.035Z,9.70
2019-03-31T03:24:29.360Z,10.30
2019-03-31T03:26:59.347Z,9.83
2019-03-31T03:29:30.185Z,10.27
2019-03-31T03:32:01.292Z,9.47
2019-03-31T03:34:31.565Z,10.57
2019-03-31T03:37:03.079Z,9.07
2019-03-31T03:39:36.019Z,10.57
2019-03-31T03:42:06.019Z,9.33
2019-03-31T03:44:37.010Z,9.17
2019-03-31T03:47:07.150Z,9.33
2019-03-31T03:49:37.219Z,8.90
2019-03-31T03:52:07.562Z,9.43
2019-03-31T03:54:37.525Z,9.30
2019-03-31T03:57:10.280Z,8.97
2019-03-31T03:59:40.614Z,9.57
2019-03-31T04:02:10.671Z,9.97
2019-03-31T04:04:40.745Z,10.17
2019-03-31T04:07:10.850Z,9.50
2019-03-31T04:09:40.851Z,9.80
2019-03-31T04:12:11.140Z,10.30
2019-03-31T04:14:41.188Z,10.20
2019-03-31T04:17:11.224Z,9.33
2019-03-31T04:19:41.209Z,9.90
2019-03-31T04:22:11.251Z,10.13
2019-03-31T04:24:41.220Z,8.73
2019-03-31T04:27:11.301Z,10.80
2019-03-31T04:29:41.654Z,9.33
2019-03-31T04:32:11.643Z,10.20
2019-03-31T04:34:41.674Z,9.20
2019-03-31T04:37:11.745Z,9.17
2019-03-31T04:39:41.758Z,9.27
2019-03-31T04:42:11.789Z,9.47
2019-03-31T04:44:41.878Z,10.43
2019-03-31T04:47:12.205Z,9.97
2019-03-31T04:49:42.196Z,9.97
2019-03-31T04:52:12.183Z,10.13
2019-03-31T04:54:42.185Z,9.87
2019-03-31T04:57:12.465Z,8.87
2019-03-31T04:59:42.450Z,9.80
2019-03-31T05:02:12.476Z,9.57
2019-03-31T05:04:42.752Z,9.67
2019-03-31T05:07:14.003Z,9.40
2019-03-31T05:09:44.237Z,9.10
2019-03-31T05:12:16.910Z,9.53
2019-03-31T05:14:46.024Z,9.40
2019-03-31T05:17:17.358Z,9.70
2019-03-31T05:19:47.327Z,10.17
2019-03-31T05:22:17.615Z,10.73
2019-03-31T05:24:47.695Z,9.53
2019-03-31T05:27:17.762Z,10.17
2019-03-31T05:29:48.085Z,10.23
2019-03-31T05:32:20.956Z,9.90
2019-03-31T05:34:55.156Z,9.90
2019-03-31T05:37:25.208Z,9.73
2019-03-31T05:39:55.235Z,9.23
2019-03-31T05:42:25.662Z,9.63
2019-03-31T05:44:58.715Z,11.60
2019-03-31T05:47:28.771Z,10.73
2019-03-31T05:49:59.163Z,10.27
2019-03-31T05:52:29.170Z,10.30
2019-03-31T05:54:59.303Z,10.40
2019-03-31T05:57:29.690Z,10.57
2019-03-31T05:59:59.665Z,11.70
2019-03-31T06:02:29.746Z,10.43
2019-03-31T06:05:00.254Z,10.87
2019-03-31T06:07:33.438Z,11.87
2019-03-31T06:10:09.327Z,10.40
2019-03-31T06:12:39.389Z,10.07
2019-03-31T06:15:09.702Z,11.20
2019-03-31T06:17:40.109Z,13.00
2019-03-31T06:20:11.450Z,10.50
2019-03-31T06:22:41.540Z,11.70
2019-03-31T06:25:13.051Z,10.13
2019-03-31T06:27:43.147Z,10.33
2019-03-31T06:30:13.695Z,11.27
2019-03-31T06:32:43.767Z,10.30
2019-03-31T06:35:14.366Z,10.60
2019-03-31T06:37:44.425Z,10.33
2019-03-31T06:40:15.236Z,11.53
2019-03-31T06:42:45.320Z,11.03
2019-03-31T06:45:15.425Z,9.50
2019-03-31T06:47:45.864Z,10.80
2019-03-31T06:50:16.081Z,10.07
2019-03-31T06:52:49.046Z,10.37
2019-03-31T06:55:19.346Z,9.13
2019-03-31T06:57:49.395Z,9.77
2019-03-31T07:00:22.451Z,10.27
2019-03-31T07:02:55.292Z,10.23
2019-03-31T07:05:25.450Z,10.60
2019-03-31T07:07:55.944Z,11.03
2019-03-31T07:10:26.102Z,10.63
2019-03-31T07:12:59.565Z,10.13
2019-03-31T07:15:28.738Z,10.40
2019-03-31T07:18:01.536Z,11.90
2019-03-31T07:20:32.823Z,10.97
2019-03-31T07:23:04.702Z,10.73
2019-03-31T07:25:37.217Z,11.87
2019-03-31T07:28:06.680Z,10.53
2019-03-31T07:30:37.206Z,12.27
2019-03-31T07:33:10.207Z,10.50
2019-03-31T07:35:40.647Z,11.33
2019-03-31T07:38:10.802Z,11.37
2019-03-31T07:40:41.135Z,10.93
2019-03-31T07:43:11.750Z,11.10
2019-03-31T07:45:41.955Z,11.20
2019-03-31T07:48:15.093Z,11.17
2019-03-31T07:50:45.491Z,12.07
2019-03-31T07:53:15.544Z,10.90
2019-03-31T07:55:45.680Z,12.13
2019-03-31T07:58:17.084Z,12.60
2019-03-31T08:00:47.228Z,13.50
2019-03-31T08:03:18.383Z,13.40
2019-03-31T08:05:48.490Z,14.80
2019-03-31T08:08:18.567Z,14.70
2019-03-31T08:10:49.371Z,15.07
2019-03-31T08:13:19.455Z,16.97
2019-03-31T08:15:50.260Z,17.40
2019-03-31T08:18:20.308Z,17.00
2019-03-31T08:20:50.451Z,17.53
2019-03-31T08:23:20.929Z,17.47
2019-03-31T08:25:54.561Z,18.27
2019-03-31T08:28:25.125Z,17.00
2019-03-31T08:30:58.489Z,16.73
2019-03-31T08:33:28.725Z,16.70
2019-03-31T08:36:00.772Z,16.40
2019-03-31T08:38:32.276Z,18.13
2019-03-31T08:41:05.517Z,17.73
2019-03-31T08:43:35.561Z,17.20
2019-03-31T08:46:05.997Z,18.97
2019-03-31T08:48:36.106Z,19.13
2019-03-31T08:51:07.385Z,19.17
2019-03-31T08:53:37.814Z,19.60
2019-03-31T08:56:08.883Z,19.53
2019-03-31T08:58:39.432Z,18.80
2019-03-31T09:01:17.339Z,19.67
2019-03-31T09:03:47.983Z,19.57
2019-03-31T09:06:21.123Z,20.57
2019-03-31T09:08:54.647Z,21.17
2019-03-31T09:11:25.107Z,19.57
2019-03-31T09:13:58.498Z,23.90
2019-03-31T09:16:28.917Z,24.30
2019-03-31T09:18:59.296Z,22.60
2019-03-31T09:21:29.402Z,25.90
2019-03-31T09:24:00.182Z,26.33
2019-03-31T09:26:30.949Z,23.07
2019-03-31T09:29:07.943Z,24.60
2019-03-31T09:31:38.137Z,22.27
2019-03-31T09:34:09.014Z,24.50
2019-03-31T09:36:51.328Z,26.77
2019-03-31T09:39:21.703Z,27.33
2019-03-31T09:41:52.125Z,26.87
2019-03-31T09:44:22.475Z,27.20
2019-03-31T09:46:52.688Z,29.00
2019-03-31T09:49:23.320Z,26.43
2019-03-31T09:51:53.538Z,25.67
2019-03-31T09:54:23.920Z,26.90
2019-03-31T09:56:54.168Z,32.07
2019-03-31T09:59:24.357Z,28.83
2019-03-31T10:01:54.664Z,25.33
2019-03-31T10:04:24.964Z,28.37
2019-03-31T10:06:58.472Z,27.70
2019-03-31T10:09:30.477Z,28.43
2019-03-31T10:12:08.227Z,28.60
2019-03-31T10:14:38.747Z,27.77
2019-03-31T10:17:08.896Z,29.80
2019-03-31T10:19:39.235Z,31.93
2019-03-31T10:22:09.525Z,33.83
2019-03-31T10:24:40.264Z,31.70
2019-03-31T10:27:10.499Z,35.43
2019-03-31T10:29:41.048Z,32.27
2019-03-31T10:32:11.352Z,33.80
2019-03-31T10:34:41.898Z,34.70
2019-03-31T10:37:12.378Z,30.97
2019-03-31T10:39:42.556Z,33.70
2019-03-31T10:42:15.654Z,30.17
2019-03-31T10:44:46.021Z,33.03
2019-03-31T10:47:16.667Z,28.90
2019-03-31T10:49:47.724Z,34.37
2019-03-31T10:52:21.002Z,31.50
2019-03-31T10:54:52.305Z,29.47
2019-03-31T10:57:26.523Z,30.20
2019-03-31T11:00:00.176Z,31.03
2019-03-31T11:02:34.160Z,29.77
2019-03-31T11:05:04.998Z,30.60
2019-03-31T11:07:37.831Z,33.63
2019-03-31T11:10:10.217Z,30.53
2019-03-31T11:12:41.542Z,29.53
2019-03-31T11:15:13.578Z,30.07
2019-03-31T11:17:44.812Z,29.40
2019-03-31T11:20:16.388Z,28.13
2019-03-31T11:22:54.814Z,29.43
2019-03-31T11:25:30.152Z,29.50
2019-03-31T11:28:02.797Z,30.20
2019-03-31T11:30:47.518Z,28.73
2019-03-31T11:33:21.706Z,28.30
2019-03-31T11:35:52.673Z,29.00
2019-03-31T11:38:24.763Z,27.50
2019-03-31T11:40:56.036Z,34.10
2019-03-31T11:43:29.554Z,30.13
2019-03-31T11:46:03.967Z,29.97
2019-03-31T11:48:38.700Z,28.20
2019-03-31T11:51:12.015Z,32.90
2019-03-31T11:53:53.309Z,30.20
2019-03-31T11:56:25.758Z,29.60
2019-03-31T11:58:58.493Z,32.80
2019-03-31T12:01:40.253Z,29.57
2019-03-31T12:04:16.379Z,29.10
2019-03-31T12:06:48.046Z,27.87
2019-03-31T12:09:19.471Z,30.50
2019-03-31T12:11:50.882Z,30.23
2019-03-31T12:14:23.638Z,23.77
2019-03-31T12:16:58.148Z,27.80
2019-03-31T12:19:28.820Z,28.77
2019-03-31T12:21:59.613Z,22.40
2019-03-31T12:24:30.807Z,20.37
2019-03-31T12:27:01.585Z,22.80
2019-03-31T12:29:33.019Z,24.37
2019-03-31T12:32:04.130Z,23.93
2019-03-31T12:34:34.585Z,26.33
2019-03-31T12:37:05.182Z,22.87
2019-03-31T12:39:35.801Z,27.03
2019-03-31T12:42:07.222Z,23.70
2019-03-31T12:44:37.585Z,25.70
2019-03-31T12:47:07.759Z,28.40
2019-03-31T12:49:39.473Z,24.43
2019-03-31T12:52:09.581Z,24.17
2019-03-31T12:54:39.823Z,23.40
2019-03-31T12:57:13.192Z,25.73
2019-03-31T12:59:43.552Z,26.47
2019-03-31T13:02:14.333Z,30.67
2019-03-31T13:04:44.655Z,26.70
2019-03-31T13:07:15.140Z,27.60
2019-03-31T13:09:46.533Z,25.13
2019-03-31T13:12:18.110Z,25.53
2019-03-31T13:14:48.559Z,28.70
2019-03-31T13:17:19.203Z,24.67
2019-03-31T13:19:49.547Z,24.67
2019-03-31T13:22:20.220Z,25.47
2019-03-31T13:24:50.369Z,23.30
2019-03-31T13:27:21.062Z,24.23
2019-03-31T13:29:52.494Z,23.30
2019-03-31T13:32:26.723Z,24.07
2019-03-31T13:34:57.128Z,26.57
2019-03-31T13:37:30.340Z,22.00
2019-03-31T13:40:03.906Z,21.60
2019-03-31T13:42:34.218Z,20.10
2019-03-31T13:45:06.315Z,19.90
2019-03-31T13:47:36.604Z,21.40
2019-03-31T13:50:09.816Z,21.07
2019-03-31T13:52:45.828Z,19.50
2019-03-31T13:55:16.302Z,21.27
2019-03-31T13:57:47.601Z,21.27
2019-03-31T14:00:40.303Z,21.40
2019-03-31T14:03:15.019Z,22.40
2019-03-31T14:05:47.775Z,22.30
2019-03-31T14:08:25.626Z,22.67
2019-03-31T14:10:50.324Z,19.50
2019-03-31T14:13:20.449Z,24.57
2019-03-31T14:15:50.887Z,22.33
2019-03-31T14:18:25.244Z,21.60
2019-03-31T14:20:55.544Z,19.60
2019-03-31T14:23:29.387Z,21.50
2019-03-31T14:26:00.060Z,20.20
2019-03-31T14:28:32.083Z,23.17
2019-03-31T14:31:02.569Z,18.83
2019-03-31T14:33:32.936Z,20.37
2019-03-31T14:36:03.423Z,19.40
2019-03-31T14:38:40.463Z,19.73
2019-03-31T14:41:11.462Z,17.30
2019-03-31T14:43:41.714Z,39.47
2019-03-31T14:46:12.304Z,17.63
2019-03-31T14:48:43.138Z,17.87
2019-03-31T14:51:13.530Z,22.13
2019-03-31T14:53:44.016Z,20.03
2019-03-31T14:56:14.341Z,18.67
2019-03-31T14:58:45.382Z,16.53
2019-03-31T15:01:16.190Z,18.77
2019-03-31T15:03:46.229Z,22.40
2019-03-31T15:06:16.946Z,18.80
2019-03-31T15:08:54.300Z,19.67
2019-03-31T15:11:21.955Z,20.03
2019-03-31T15:13:56.325Z,19.70
2019-03-31T15:16:31.242Z,16.10
2019-03-31T15:19:02.829Z,17.33
2019-03-31T15:21:33.456Z,18.07
2019-03-31T15:24:07.942Z,15.43
2019-03-31T15:26:41.763Z,16.20
2019-03-31T15:29:14.745Z,15.40
2019-03-31T15:31:45.840Z,15.33
2019-03-31T15:34:16.673Z,14.93
2019-03-31T15:36:47.144Z,14.27
2019-03-31T15:39:18.207Z,15.60
2019-03-31T15:41:48.544Z,14.03
2019-03-31T15:44:21.649Z,17.50
2019-03-31T15:46:52.187Z,15.07
2019-03-31T15:49:22.623Z,14.17
2019-03-31T15:51:53.128Z,14.47
2019-03-31T15:54:23.921Z,13.07
2019-03-31T15:56:56.177Z,13.20
2019-03-31T15:59:26.655Z,15.87
2019-03-31T16:01:56.910Z,15.60
2019-03-31T16:04:28.960Z,13.37
2019-03-31T16:07:01.334Z,15.07
2019-03-31T16:09:30.973Z,14.47
2019-03-31T16:12:01.633Z,13.40
2019-03-31T16:14:31.912Z,14.80
2019-03-31T16:17:02.161Z,12.30
2019-03-31T16:19:31.890Z,12.17
2019-03-31T16:22:02.120Z,10.00
2019-03-31T16:24:39.424Z,9.10
2019-03-31T16:27:12.183Z,11.03
2019-03-31T16:29:41.972Z,11.23
2019-03-31T16:32:14.783Z,11.43
2019-03-31T16:34:44.894Z,9.93
2019-03-31T16:37:16.339Z,10.53
2019-03-31T16:39:46.041Z,10.57
2019-03-31T16:42:16.135Z,11.13
2019-03-31T16:44:57.565Z,10.93
2019-03-31T16:47:17.532Z,9.20
2019-03-31T16:49:47.416Z,9.67
2019-03-31T16:52:17.085Z,9.70
2019-03-31T16:54:46.853Z,9.40
2019-03-31T16:57:17.984Z,9.93
2019-03-31T16:59:48.806Z,9.30
2019-03-31T17:02:18.458Z,10.50
2019-03-31T17:04:48.479Z,8.50
2019-03-31T17:07:19.234Z,8.40
2019-03-31T17:09:51.817Z,7.57
2019-03-31T17:12:20.677Z,7.90
2019-03-31T17:14:50.827Z,7.67
2019-03-31T17:17:23.333Z,6.87
2019-03-31T17:19:56.577Z,8.30
2019-03-31T17:22:26.197Z,7.57
2019-03-31T17:24:57.281Z,6.00
2019-03-31T17:27:27.028Z,7.10
2019-03-31T17:29:56.807Z,6.23
2019-03-31T17:32:28.011Z,5.63
2019-03-31T17:34:58.419Z,6.20
2019-03-31T17:37:29.373Z,5.57
2019-03-31T17:40:06.110Z,5.63
2019-03-31T17:42:30.769Z,5.83
2019-03-31T17:45:01.857Z,5.70
2019-03-31T17:47:34.848Z,5.63
2019-03-31T17:50:05.427Z,7.13
2019-03-31T17:52:35.141Z,5.50
2019-03-31T17:55:06.159Z,5.70
2019-03-31T17:57:36.155Z,5.20
2019-03-31T18:00:08.471Z,4.97
2019-03-31T18:02:39.601Z,5.70
2019-03-31T18:05:09.898Z,5.07
2019-03-31T18:07:40.656Z,5.40
2019-03-31T18:10:20.611Z,6.97
2019-03-31T18:12:44.681Z,5.47
2019-03-31T18:15:15.043Z,5.30
2019-03-31T18:17:44.978Z,5.27
2019-03-31T18:20:14.808Z,5.33
2019-03-31T18:22:45.072Z,5.57
2019-03-31T18:25:14.807Z,5.17
2019-03-31T18:27:46.010Z,5.53
2019-03-31T18:30:18.170Z,5.20
2019-03-31T18:32:48.107Z,4.83
2019-03-31T18:35:19.409Z,6.63
2019-03-31T18:37:50.074Z,5.80
2019-03-31T18:40:34.052Z,5.20
2019-03-31T18:42:51.318Z,5.43
2019-03-31T18:45:22.078Z,5.83
2019-03-31T18:48:00.998Z,4.90
2019-03-31T18:50:30.994Z,5.17
2019-03-31T18:53:00.744Z,4.90
2019-03-31T18:55:58.659Z,5.53
2019-03-31T18:58:53.999Z,5.20
2019-03-31T19:01:47.073Z,4.83
2019-03-31T19:04:39.418Z,6.20
2019-03-31T19:07:26.632Z,4.83
2019-03-31T19:10:25.696Z,5.03
2019-03-31T19:13:13.071Z,6.53
2019-03-31T19:16:04.584Z,7.40
2019-03-31T19:18:42.516Z,7.07
2019-03-31T19:21:36.951Z,8.17
2019-03-31T19:24:21.377Z,7.53
2019-03-31T19:27:08.647Z,6.00
2019-03-31T19:30:00.389Z,5.57
2019-03-31T19:32:51.499Z,5.43
2019-03-31T19:35:42.953Z,6.30
2019-03-31T19:38:23.266Z,5.87
2019-03-31T19:41:10.757Z,5.63
2019-03-31T19:44:02.882Z,6.60
2019-03-31T19:46:57.324Z,6.07
2019-03-31T19:49:48.978Z,6.40
2019-03-31T19:52:44.432Z,5.70
2019-03-31T19:55:37.875Z,5.17
2019-03-31T19:58:38.096Z,6.30
2019-03-31T20:01:29.610Z,6.47
2019-03-31T20:04:25.296Z,6.07
2019-03-31T20:07:06.366Z,6.00
2019-03-31T20:09:47.893Z,5.50
2019-03-31T20:12:36.338Z,5.73
2019-03-31T20:15:31.620Z,6.50
2019-03-31T20:18:25.937Z,5.77
2019-03-31T20:21:14.725Z,5.90
2019-03-31T20:23:56.629Z,5.57
2019-03-31T20:26:43.853Z,6.20
2019-03-31T20:29:25.242Z,6.37
2019-03-31T20:32:25.987Z,5.90
2019-03-31T20:35:24.838Z,6.77
2019-03-31T20:38:14.993Z,7.43
2019-03-31T20:41:00.027Z,6.97
2019-03-31T20:44:01.078Z,7.70
2019-03-31T20:46:30.545Z,7.80
2019-03-31T20:49:01.594Z,7.57
2019-03-31T20:51:31.224Z,6.87
2019-03-31T20:54:03.576Z,7.27
2019-03-31T20:56:33.123Z,6.97
2019-03-31T20:59:02.714Z,8.00
2019-03-31T21:01:32.770Z,7.47
2019-03-31T21:04:03.738Z,7.30
2019-03-31T21:06:33.436Z,6.87
2019-03-31T21:09:06.036Z,8.20
2019-03-31T21:11:35.519Z,8.13
2019-03-31T21:14:05.294Z,7.60
2019-03-31T21:16:34.963Z,7.63
2019-03-31T21:19:04.707Z,7.63
2019-03-31T21:21:34.755Z,8.03
2019-03-31T21:24:04.650Z,7.53
2019-03-31T21:26:34.269Z,7.47
2019-03-31T21:29:07.194Z,7.67
2019-03-31T21:31:36.718Z,7.77
2019-03-31T21:34:09.555Z,7.40
2019-03-31T21:36:39.551Z,8.93
2019-03-31T21:39:09.395Z,8.43
2019-03-31T21:41:39.020Z,8.27
2019-03-31T21:44:09.952Z,7.23
2019-03-31T21:46:39.692Z,7.17
2019-03-31T21:49:14.506Z,8.37
2019-03-31T21:51:44.371Z,7.50
2019-03-31T21:54:13.977Z,7.90
2019-03-31T21:56:43.694Z,8.33
2019-03-31T21:59:14.743Z,7.97
2019-03-31T22:01:44.760Z,8.23
2019-03-31T22:04:14.608Z,7.67
2019-03-31T22:06:46.127Z,8.33
2019-03-31T22:09:15.656Z,8.17
2019-03-31T22:11:45.321Z,8.17
2019-03-31T22:14:15.523Z,7.20
2019-03-31T22:16:45.180Z,7.77
2019-03-31T22:19:14.702Z,6.93
2019-03-31T22:21:44.480Z,7.63
2019-03-31T22:24:14.068Z,7.50
2019-03-31T22:26:43.690Z,8.13
2019-03-31T22:29:13.635Z,7.33
2019-03-31T22:31:45.055Z,7.57
2019-03-31T22:34:16.061Z,7.50
2019-03-31T22:36:45.972Z,7.40
2019-03-31T22:39:16.749Z,7.10
2019-03-31T22:41:46.308Z,11.50
2019-03-31T22:44:16.285Z,6.33
2019-03-31T22:46:54.124Z,7.70
2019-03-31T22:49:17.059Z,7.37
2019-03-31T22:51:46.839Z,8.47
2019-03-31T22:54:17.417Z,7.43
2019-03-31T22:56:46.938Z,10.13
2019-03-31T22:59:16.761Z,6.83
2019-03-31T23:01:46.287Z,6.67
2019-03-31T23:04:16.418Z,6.90
2019-03-31T23:06:46.259Z,7.47
2019-03-31T23:09:16.250Z,9.07
2019-03-31T23:11:45.764Z,6.33
2019-03-31T23:14:17.279Z,8.40
2019-03-31T23:16:47.225Z,6.23
2019-03-31T23:19:16.844Z,7.00
2019-03-31T23:21:48.343Z,7.17
2019-03-31T23:24:17.907Z,4.63
2019-03-31T23:26:47.406Z,5.27
2019-03-31T23:29:16.871Z,5.40
2019-03-31T23:31:46.476Z,9.83
2019-03-31T23:34:19.784Z,4.37
2019-03-31T23:36:49.483Z,4.80
2019-03-31T23:39:22.270Z,5.67
2019-03-31T23:41:52.892Z,4.90
2019-03-31T23:44:22.546Z,4.30
2019-03-31T23:46:52.217Z,7.50
2019-03-31T23:49:22.067Z,4.33
2019-03-31T23:51:52.748Z,4.00
2019-03-31T23:54:26.170Z,4.70
2019-03-31T23:56:59.707Z,5.10
2019-03-31T23:59:29.280Z,6.30
